Weiden, Germany

2:34 PM CEST on September 22, 2014 (GMT +0200)
Hammerweg | Change Station
CLOSE
Current Station
Personal Weather Station
Location: Weiden in der Oberpfalz, Bayern
Elevation: 1342 ft
Nearby Weather Stations

Elev 1342 ft 49.69 °N, 12.17 °E | Updated 34 minutes ago

Rain
Rain
47.8 °F
Feels Like 44 °F
N
8.4
Wind Variable Wind from WSW
Gusts 12.0 mph

Today
High -- | Low -- °F
--% Chance of Precip.
Yesterday
High -- | Low -- °F
Precip. -- in
6:57 AM 7:09 PM
Waning Crescent, 3% visible
Pressure 29.95 in
Visibility 6.2 miles
Clouds Few 700 ft
Scattered Clouds 3200 ft
Mostly Cloudy 4300 ft
Mostly Cloudy 6500 ft
Overcast 8000 ft
Windchill 44 °F
Dew Point 45 °F
Humidity 90%
Rainfall 0.13 in
Snow Depth Not available.
UV 0.8 out of 12
Pollen Not available.
Air Quality Not available.
Flu Activity Not available.
SPECI ETIC 221221Z AUTO 28005KT 9999 FEW007 SCT032 BKN043 BKN065 OVC080 09/06 A2995 RMK AO2

More Conditions Fewer Conditions

Pressure 29.95 in
Visibility 6.2 miles
Clouds Few 700 ft
Scattered Clouds 3200 ft
Mostly Cloudy 4300 ft
Mostly Cloudy 6500 ft
Overcast 8000 ft
Windchill 44 °F
Dew Point 45 °F
Humidity 90%
Rainfall 0.13 in
Snow Depth Not available.
UV 0.8 out of 12
Pollen Not available.
Air Quality Not available.
Flu Activity Not available.
SPECI ETIC 221221Z AUTO 28005KT 9999 FEW007 SCT032 BKN043 BKN065 OVC080 09/06 A2995 RMK AO2

More Conditions Fewer Conditions

10-Day Weather Forecast

Almanac

Astronomy

Sep. 22, 2014 Rise Set
Actual Time 6:57 AM CEST 7:09 PM CEST
Civil Twilight 6:25 AM CEST 7:41 PM CEST
Nautical Twilight 5:47 AM CEST 8:19 PM CEST
Astronomical Twilight 5:08 AM CEST 8:58 PM CEST
Moon 5:03 AM CEST 6:13 PM CEST
Length of Visible Light 13h 16m
Length of Day
12h 12m
Tomorrow will be 3m 40s shorter.
Waning Crescent, 3% of the Moon is Illuminated
Today
Waning Crescent
Sep 24
New
Oct 1
First Quarter
Oct 8
Full
Oct 15
Last Quarter

Yesterday's Extremes

Country Highs Country Lows

Community

WunderPhotos

Upload Photos

1,755,420 photos uploaded!

Nearby

Snow Depth

Not available.

Earthquake Activity

City Distance Mag. Time & Date
No recent earthquake activity has been reported nearby.
Minimum magnitude displayed is 2.5.

Coastal Water Temperatures

Place Temperature
No Stations Reporting

Nearby Weather Stations